createdAt,value
2019-06-20T00:02:07.823Z,4.80
2019-06-20T00:06:11.315Z,5.05
2019-06-20T00:10:15.163Z,4.30
2019-06-20T00:14:18.637Z,4.28
2019-06-20T00:18:22.119Z,4.53
2019-06-20T00:22:25.592Z,4.30
2019-06-20T00:26:29.352Z,4.12
2019-06-20T00:30:33.099Z,4.72
2019-06-20T00:34:36.567Z,3.67
2019-06-20T00:38:40.409Z,4.08
2019-06-20T00:42:44.125Z,3.83
2019-06-20T00:46:47.594Z,3.62
2019-06-20T00:50:51.052Z,3.37
2019-06-20T00:54:54.504Z,3.05
2019-06-20T00:58:57.956Z,3.43
2019-06-20T01:03:01.821Z,2.90
2019-06-20T01:07:05.420Z,3.60
2019-06-20T01:11:08.888Z,3.47
2019-06-20T01:15:13.583Z,4.50
2019-06-20T01:19:17.116Z,4.97
2019-06-20T01:23:20.578Z,5.58
2019-06-20T01:27:24.048Z,5.87
2019-06-20T01:31:27.881Z,5.50
2019-06-20T01:35:31.588Z,4.62
2019-06-20T01:39:35.057Z,5.28
2019-06-20T01:43:49.948Z,4.83
2019-06-20T01:47:44.228Z,4.50
2019-06-20T01:51:47.707Z,4.62
2019-06-20T01:55:51.487Z,4.50
2019-06-20T01:59:54.952Z,4.42
2019-06-20T02:03:58.484Z,3.52
2019-06-20T02:08:01.963Z,3.60
2019-06-20T02:12:05.444Z,4.12
2019-06-20T02:16:08.912Z,4.03
2019-06-20T02:20:33.576Z,4.40
2019-06-20T02:24:37.116Z,4.50
2019-06-20T02:28:40.587Z,4.33
2019-06-20T02:32:44.047Z,4.30
2019-06-20T02:36:48.130Z,4.50
2019-06-20T02:40:51.588Z,4.40
2019-06-20T02:44:55.074Z,3.60
2019-06-20T02:48:58.849Z,3.22
2019-06-20T02:53:03.770Z,3.83
2019-06-20T02:57:07.307Z,4.17
2019-06-20T03:01:10.815Z,4.47
2019-06-20T03:05:14.411Z,4.80
2019-06-20T03:09:18.159Z,5.05
2019-06-20T03:13:21.629Z,5.78
2019-06-20T03:17:25.445Z,6.12
2019-06-20T03:21:28.975Z,5.27
2019-06-20T03:25:32.502Z,6.17
2019-06-20T03:29:35.960Z,6.40
2019-06-20T03:33:39.500Z,6.85
2019-06-20T03:37:42.969Z,6.87
2019-06-20T03:41:46.426Z,7.30
2019-06-20T03:45:49.880Z,7.45
2019-06-20T03:49:53.340Z,7.87
2019-06-20T03:53:56.805Z,8.45
2019-06-20T03:58:01.511Z,8.43
2019-06-20T04:02:05.339Z,8.20
2019-06-20T04:06:09.065Z,7.65
2019-06-20T04:10:12.908Z,8.05
2019-06-20T04:14:16.365Z,7.72
2019-06-20T04:18:20.170Z,8.65
2019-06-20T04:22:24.008Z,8.03
2019-06-20T04:26:27.476Z,7.95
2019-06-20T04:30:31.209Z,8.35
2019-06-20T04:34:35.007Z,7.28
2019-06-20T04:38:38.490Z,6.83
2019-06-20T04:42:42.009Z,7.45
2019-06-20T04:46:53.235Z,6.95
2019-06-20T04:50:56.972Z,6.78
2019-06-20T04:55:00.477Z,7.12
2019-06-20T04:59:04.391Z,6.80
2019-06-20T05:03:07.868Z,5.75
2019-06-20T05:07:14.400Z,6.70
2019-06-20T05:11:18.189Z,5.42
2019-06-20T05:15:21.640Z,5.70
2019-06-20T05:19:25.391Z,5.33
2019-06-20T05:23:28.848Z,5.37
2019-06-20T05:27:32.387Z,4.60
2019-06-20T05:31:35.831Z,5.58
2019-06-20T05:35:39.302Z,5.08
2019-06-20T05:39:42.830Z,4.67
2019-06-20T05:43:46.563Z,5.07
2019-06-20T05:47:50.531Z,5.17
2019-06-20T05:51:54.256Z,4.97
2019-06-20T05:55:57.718Z,5.90
2019-06-20T06:00:01.184Z,6.10
2019-06-20T06:04:07.644Z,5.70
2019-06-20T06:08:11.448Z,6.55
2019-06-20T06:12:14.917Z,6.45
2019-06-20T06:16:26.989Z,7.65
2019-06-20T06:20:23.630Z,7.77
2019-06-20T06:24:27.104Z,8.95
2019-06-20T06:28:30.641Z,10.90
2019-06-20T06:32:39.996Z,11.53
2019-06-20T06:36:39.672Z,12.30
2019-06-20T06:40:43.209Z,12.60
2019-06-20T06:44:46.740Z,14.30
2019-06-20T06:48:50.195Z,15.15
2019-06-20T06:52:53.661Z,15.20
2019-06-20T06:56:57.409Z,15.63
2019-06-20T07:01:01.148Z,15.63
2019-06-20T07:05:07.240Z,14.33
2019-06-20T07:09:10.974Z,14.65
2019-06-20T07:13:14.712Z,15.58
2019-06-20T07:17:18.176Z,14.67
2019-06-20T07:21:22.111Z,14.35
2019-06-20T07:25:25.645Z,16.73
2019-06-20T07:29:29.180Z,16.37
2019-06-20T07:33:32.661Z,18.23
2019-06-20T07:37:36.480Z,18.82
2019-06-20T07:41:39.949Z,19.98
2019-06-20T07:45:43.424Z,19.17
2019-06-20T07:49:46.896Z,20.68
2019-06-20T07:53:50.394Z,20.15
2019-06-20T07:57:53.953Z,18.27
2019-06-20T08:01:57.732Z,23.30
2019-06-20T08:06:01.201Z,22.93
2019-06-20T08:10:10.709Z,21.62
2019-06-20T08:14:14.498Z,21.73
2019-06-20T08:18:17.956Z,21.75
2019-06-20T08:22:21.428Z,21.13
2019-06-20T08:26:24.900Z,20.60
2019-06-20T08:30:30.218Z,23.92
2019-06-20T08:34:33.683Z,21.90
2019-06-20T08:38:37.151Z,22.00
2019-06-20T08:42:40.897Z,22.93
2019-06-20T08:46:44.368Z,21.42
2019-06-20T08:50:48.150Z,22.55
2019-06-20T08:54:51.912Z,20.55
2019-06-20T08:58:57.011Z,21.80
2019-06-20T09:11:07.845Z,21.80
2019-06-20T09:15:11.857Z,22.32
2019-06-20T09:19:15.325Z,20.75
2019-06-20T09:23:19.103Z,21.13
2019-06-20T09:27:22.839Z,22.40
2019-06-20T09:31:26.578Z,20.48
2019-06-20T09:35:30.291Z,19.98
2019-06-20T09:39:33.759Z,20.12
2019-06-20T09:43:37.236Z,19.82
2019-06-20T09:47:41.116Z,17.37
2019-06-20T09:51:44.591Z,18.35
2019-06-20T09:55:48.897Z,16.23
2019-06-20T10:00:03.309Z,14.98
2019-06-20T10:03:58.718Z,17.57
2019-06-20T10:08:02.575Z,19.67
2019-06-20T10:12:06.335Z,17.27
2019-06-20T10:16:10.054Z,20.72
2019-06-20T10:20:13.768Z,20.77
2019-06-20T10:24:17.228Z,20.27
2019-06-20T10:28:20.963Z,19.92
2019-06-20T10:32:24.760Z,21.17
2019-06-20T10:36:28.239Z,19.62
2019-06-20T10:40:31.992Z,17.00
2019-06-20T10:44:35.711Z,16.20
2019-06-20T10:48:39.188Z,16.82
2019-06-20T10:52:43.666Z,15.63
2019-06-20T10:56:47.315Z,12.98
2019-06-20T11:00:50.799Z,12.80
2019-06-20T11:04:54.348Z,12.23
2019-06-20T11:08:57.820Z,12.53
2019-06-20T11:13:01.655Z,11.87
2019-06-20T11:17:05.107Z,12.23
2019-06-20T11:21:08.568Z,11.78
2019-06-20T11:25:13.984Z,10.80
2019-06-20T11:29:17.781Z,11.15
2019-06-20T11:33:21.523Z,11.97
2019-06-20T11:37:25.013Z,10.08
2019-06-20T11:41:28.748Z,14.13
2019-06-20T11:45:32.217Z,9.80
2019-06-20T11:49:36.423Z,9.95
2019-06-20T11:53:40.642Z,9.00
2019-06-20T11:57:44.538Z,10.13
2019-06-20T12:01:49.083Z,6.60
2019-06-20T12:05:52.608Z,5.43
2019-06-20T12:09:56.069Z,5.30
2019-06-20T12:13:59.605Z,6.78
2019-06-20T12:18:03.087Z,7.47
2019-06-20T12:22:06.831Z,9.15
2019-06-20T12:26:10.416Z,9.65
2019-06-20T12:30:15.611Z,8.90
2019-06-20T12:34:19.334Z,8.10
2019-06-20T12:38:23.140Z,7.40
2019-06-20T12:42:26.857Z,7.72
2019-06-20T12:46:30.414Z,9.13
2019-06-20T12:50:34.228Z,7.03
2019-06-20T12:54:38.168Z,7.65
2019-06-20T12:58:42.232Z,7.47
2019-06-20T13:02:45.796Z,7.12
2019-06-20T13:06:49.827Z,7.22
2019-06-20T13:10:54.289Z,6.55
2019-06-20T13:15:01.022Z,7.42
2019-06-20T13:19:04.815Z,7.60
2019-06-20T13:23:08.343Z,7.47
2019-06-20T13:27:12.082Z,8.98
2019-06-20T13:31:15.871Z,8.95
2019-06-20T13:35:20.483Z,8.08
2019-06-20T13:39:23.940Z,7.03
2019-06-20T13:43:27.667Z,7.30
2019-06-20T13:47:31.135Z,8.15
2019-06-20T13:51:34.592Z,7.97
2019-06-20T13:55:39.410Z,8.65
2019-06-20T13:59:43.446Z,6.87
2019-06-20T14:03:48.628Z,6.70
2019-06-20T14:07:54.330Z,6.97
2019-06-20T14:11:57.505Z,7.63
2019-06-20T14:16:01.264Z,6.92
2019-06-20T14:20:08.395Z,5.53
2019-06-20T14:24:12.224Z,6.62
2019-06-20T14:28:17.242Z,6.28
2019-06-20T14:32:22.367Z,7.33
2019-06-20T14:36:26.066Z,7.17
2019-06-20T14:40:29.535Z,6.35
2019-06-20T14:44:33.316Z,6.67
2019-06-20T14:48:37.028Z,5.80
2019-06-20T14:52:40.496Z,7.20
2019-06-20T14:56:45.867Z,7.08
2019-06-20T15:00:49.865Z,6.00
2019-06-20T15:04:54.386Z,5.37
2019-06-20T15:09:04.803Z,4.62
2019-06-20T15:13:03.395Z,4.83
2019-06-20T15:17:06.863Z,4.93
2019-06-20T15:21:10.332Z,4.60
2019-06-20T15:25:14.128Z,5.45
2019-06-20T15:29:17.594Z,5.55
2019-06-20T15:33:21.071Z,5.20
2019-06-20T15:37:24.833Z,5.10
2019-06-20T15:41:28.637Z,4.07
2019-06-20T15:45:32.118Z,4.72
2019-06-20T15:49:35.893Z,4.40
2019-06-20T15:53:39.352Z,4.78
2019-06-20T15:57:42.848Z,4.85
2019-06-20T16:01:46.364Z,5.00
2019-06-20T16:05:49.831Z,5.65
2019-06-20T16:09:53.282Z,5.15
2019-06-20T16:13:56.740Z,5.65
2019-06-20T16:18:00.211Z,5.35
2019-06-20T16:22:03.796Z,5.37
2019-06-20T16:26:07.591Z,5.65
2019-06-20T16:30:11.953Z,6.87
2019-06-20T16:34:15.696Z,7.72
2019-06-20T16:38:19.219Z,8.55
2019-06-20T16:42:22.737Z,8.55
2019-06-20T16:46:26.300Z,7.37
2019-06-20T16:50:29.808Z,7.33
2019-06-20T16:54:33.518Z,7.77
2019-06-20T16:58:37.014Z,8.38
2019-06-20T17:02:40.596Z,8.60
2019-06-20T17:06:44.091Z,10.08
2019-06-20T17:10:47.829Z,9.33
2019-06-20T17:14:51.289Z,9.03
2019-06-20T17:18:54.741Z,9.10
2019-06-20T17:22:58.287Z,9.83
2019-06-20T17:27:02.006Z,9.98
2019-06-20T17:31:05.866Z,9.80
2019-06-20T17:35:09.409Z,9.23
2019-06-20T17:39:13.134Z,11.27
2019-06-20T17:43:16.604Z,11.63
2019-06-20T17:47:20.096Z,12.40
2019-06-20T17:51:23.563Z,11.75
2019-06-20T17:55:27.109Z,10.13
2019-06-20T17:59:30.577Z,8.78
2019-06-20T18:03:34.104Z,8.15
2019-06-20T18:07:37.821Z,8.77
2019-06-20T18:11:41.381Z,9.28
2019-06-20T18:15:44.873Z,9.30
2019-06-20T18:19:53.153Z,9.83
2019-06-20T18:23:56.993Z,9.10
2019-06-20T18:28:01.030Z,9.03
2019-06-20T18:32:04.848Z,8.75
2019-06-20T18:36:08.328Z,8.70
2019-06-20T18:40:12.058Z,8.77
2019-06-20T18:44:15.585Z,8.85
2019-06-20T18:48:19.058Z,8.75
2019-06-20T18:52:22.506Z,8.78
2019-06-20T18:56:26.055Z,8.98
2019-06-20T19:00:34.648Z,9.20
2019-06-20T19:04:46.192Z,9.65
2019-06-20T19:08:40.227Z,9.53
2019-06-20T19:12:43.675Z,9.38
2019-06-20T19:16:47.214Z,9.40
2019-06-20T19:20:51.255Z,9.78
2019-06-20T19:24:55.059Z,9.90
2019-06-20T19:28:58.594Z,9.48
2019-06-20T19:33:02.710Z,9.60
2019-06-20T19:37:06.241Z,9.05
2019-06-20T19:41:09.781Z,9.78
2019-06-20T19:45:15.887Z,10.50
2019-06-20T19:53:22.380Z,11.03
2019-06-20T19:57:25.975Z,10.03
2019-06-20T20:01:29.820Z,10.85
2019-06-20T20:05:33.618Z,10.32
2019-06-20T20:09:37.353Z,9.15
2019-06-20T20:13:41.147Z,10.30
2019-06-20T20:17:44.958Z,10.40
2019-06-20T20:21:48.673Z,10.53
2019-06-20T20:25:52.401Z,10.23
2019-06-20T20:29:55.900Z,12.07
2019-06-20T20:34:45.103Z,11.45
2019-06-20T20:38:48.557Z,12.30
2019-06-20T20:42:52.059Z,11.48
2019-06-20T20:46:55.884Z,10.20
2019-06-20T20:56:03.274Z,9.18
2019-06-20T21:00:13.348Z,10.30
2019-06-20T21:04:17.137Z,10.43
2019-06-20T21:08:20.895Z,9.55
2019-06-20T21:12:24.410Z,10.48
2019-06-20T21:16:34.093Z,12.63
2019-06-20T21:20:36.920Z,12.00
2019-06-20T21:24:40.383Z,11.97
2019-06-20T21:28:44.216Z,12.98
2019-06-20T21:32:47.666Z,13.58
2019-06-20T21:37:06.243Z,13.65
2019-06-20T21:41:10.045Z,14.58
2019-06-20T21:45:16.348Z,14.38
2019-06-20T21:49:22.258Z,15.50
2019-06-20T21:53:25.703Z,16.62
2019-06-20T21:57:29.516Z,14.38
2019-06-20T22:01:33.111Z,15.48
2019-06-20T22:05:36.916Z,13.97
2019-06-20T22:09:40.380Z,7.25
2019-06-20T22:13:45.871Z,7.33
2019-06-20T22:17:49.308Z,7.47
2019-06-20T22:21:53.032Z,7.90
2019-06-20T22:25:56.474Z,7.45
2019-06-20T22:30:03.504Z,8.35
2019-06-20T22:34:05.439Z,9.00
2019-06-20T22:38:09.267Z,10.18
2019-06-20T22:42:12.723Z,9.45
2019-06-20T22:46:16.196Z,9.28
2019-06-20T22:50:20.011Z,10.53
2019-06-20T22:54:23.479Z,10.28
2019-06-20T22:58:26.951Z,10.82
2019-06-20T23:02:30.428Z,10.53
2019-06-20T23:06:34.240Z,10.88
2019-06-20T23:10:37.936Z,9.65
2019-06-20T23:14:41.673Z,10.58
2019-06-20T23:18:45.137Z,11.73
2019-06-20T23:22:49.056Z,10.82
2019-06-20T23:26:52.592Z,11.35
2019-06-20T23:30:56.051Z,11.35
2019-06-20T23:34:59.800Z,12.90
2019-06-20T23:39:03.264Z,13.90
2019-06-20T23:43:06.803Z,13.30
2019-06-20T23:47:10.568Z,13.30
2019-06-20T23:51:24.930Z,16.17
2019-06-20T23:55:19.236Z,15.10
2019-06-20T23:59:22.703Z,15.15
